createdAt,value
2018-04-01T00:01:08.630Z,42.80
2018-04-01T00:03:36.923Z,42.00
2018-04-01T00:06:05.686Z,40.40
2018-04-01T00:08:34.174Z,42.00
2018-04-01T00:11:02.568Z,41.20
2018-04-01T00:13:31.302Z,38.60
2018-04-01T00:15:59.520Z,41.80
2018-04-01T00:18:28.182Z,40.20
2018-04-01T00:20:56.702Z,41.60
2018-04-01T00:23:25.124Z,48.00
2018-04-01T00:25:53.640Z,48.60
2018-04-01T00:28:22.265Z,53.60
2018-04-01T00:30:50.664Z,47.60
2018-04-01T00:33:18.869Z,48.00
2018-04-01T00:35:47.335Z,49.80
2018-04-01T00:38:15.960Z,42.60
2018-04-01T00:40:44.446Z,45.20
2018-04-01T00:43:12.926Z,41.20
2018-04-01T00:45:41.635Z,45.20
2018-04-01T00:48:10.414Z,44.80
2018-04-01T00:50:38.737Z,44.40
2018-04-01T00:53:07.198Z,43.00
2018-04-01T00:55:35.658Z,43.80
2018-04-01T00:58:03.955Z,42.60
2018-04-01T01:00:32.540Z,42.40
2018-04-01T01:03:01.207Z,44.00
2018-04-01T01:05:29.647Z,44.40
2018-04-01T01:07:58.462Z,43.80
2018-04-01T01:10:26.743Z,45.20
2018-04-01T01:12:55.213Z,43.00
2018-04-01T01:15:23.546Z,47.80
2018-04-01T01:17:52.067Z,43.00
2018-04-01T01:20:20.480Z,57.20
2018-04-01T01:22:48.976Z,62.40
2018-04-01T01:25:17.667Z,42.00
2018-04-01T01:27:46.163Z,46.40
2018-04-01T01:30:14.625Z,45.20
2018-04-01T01:32:43.195Z,45.40
2018-04-01T01:35:11.826Z,46.60
2018-04-01T01:37:40.797Z,43.00
2018-04-01T01:40:09.271Z,43.00
2018-04-01T01:42:37.914Z,37.40
2018-04-01T01:45:06.531Z,39.80
2018-04-01T01:47:35.000Z,40.80
2018-04-01T01:50:03.589Z,45.60
2018-04-01T01:52:32.240Z,44.60
2018-04-01T01:55:00.407Z,43.80
2018-04-01T01:57:28.979Z,46.40
2018-04-01T01:59:58.076Z,42.00
2018-04-01T02:02:26.443Z,45.00
2018-04-01T02:04:55.177Z,42.00
2018-04-01T02:07:23.998Z,43.80
2018-04-01T02:09:52.332Z,44.60
2018-04-01T02:12:20.763Z,44.40
2018-04-01T02:14:49.388Z,48.20
2018-04-01T02:17:17.657Z,46.00
2018-04-01T02:19:46.258Z,48.40
2018-04-01T02:22:15.124Z,47.00
2018-04-01T02:24:43.422Z,45.20
2018-04-01T02:27:12.391Z,46.60
2018-04-01T02:29:40.495Z,48.80
2018-04-01T02:32:09.075Z,47.60
2018-04-01T02:34:37.904Z,49.00
2018-04-01T02:37:06.404Z,40.80
2018-04-01T02:39:34.870Z,41.60
2018-04-01T02:42:03.590Z,42.60
2018-04-01T02:44:32.082Z,39.20
2018-04-01T02:47:00.457Z,36.40
2018-04-01T02:49:28.762Z,40.00
2018-04-01T02:51:57.141Z,39.20
2018-04-01T02:54:25.025Z,47.60
2018-04-01T02:56:53.596Z,49.60
2018-04-01T02:59:21.860Z,50.20
2018-04-01T03:01:50.377Z,46.80
2018-04-01T03:04:19.296Z,46.00
2018-04-01T03:06:47.725Z,46.60
2018-04-01T03:09:16.588Z,46.40
2018-04-01T03:11:45.181Z,49.80
2018-04-01T03:14:14.026Z,46.80
2018-04-01T03:16:42.678Z,46.80
2018-04-01T03:19:11.323Z,45.80
2018-04-01T03:21:39.579Z,44.00
2018-04-01T03:24:08.162Z,44.00
2018-04-01T03:26:36.607Z,46.60
2018-04-01T03:29:05.347Z,46.20
2018-04-01T03:31:34.050Z,47.80
2018-04-01T03:34:02.451Z,42.40
2018-04-01T03:36:30.790Z,44.80
2018-04-01T03:38:59.421Z,43.20
2018-04-01T03:41:28.038Z,43.80
2018-04-01T03:43:56.704Z,46.00
2018-04-01T03:46:25.428Z,42.00
2018-04-01T03:48:53.801Z,42.40
2018-04-01T03:51:22.423Z,41.40
2018-04-01T03:53:51.467Z,43.40
2018-04-01T03:56:20.053Z,43.00
2018-04-01T03:58:49.081Z,41.80
2018-04-01T04:01:17.975Z,43.60
2018-04-01T04:03:46.790Z,44.20
2018-04-01T04:06:15.466Z,45.00
2018-04-01T04:08:43.753Z,42.20
2018-04-01T04:11:12.510Z,45.00
2018-04-01T04:13:41.295Z,40.80
2018-04-01T04:16:09.808Z,41.60
2018-04-01T04:18:38.459Z,44.40
2018-04-01T04:21:07.364Z,48.20
2018-04-01T04:23:37.071Z,51.80
2018-04-01T04:26:06.019Z,53.20
2018-04-01T04:28:34.514Z,49.60
2018-04-01T04:31:03.089Z,59.60
2018-04-01T04:33:33.058Z,52.20
2018-04-01T04:36:01.573Z,46.20
2018-04-01T04:38:30.228Z,49.00
2018-04-01T04:40:58.861Z,49.00
2018-04-01T04:43:27.193Z,45.20
2018-04-01T04:45:55.862Z,50.00
2018-04-01T04:48:24.403Z,45.20
2018-04-01T04:50:52.882Z,45.60
2018-04-01T04:53:21.633Z,52.60
2018-04-01T04:55:50.150Z,152.60
2018-04-01T04:58:18.562Z,53.20
2018-04-01T05:00:47.002Z,49.20
2018-04-01T05:03:15.497Z,43.00
2018-04-01T05:05:44.223Z,48.20
2018-04-01T05:08:13.045Z,47.40
2018-04-01T05:10:41.733Z,41.80
2018-04-01T05:13:10.133Z,47.80
2018-04-01T05:15:38.464Z,46.60
2018-04-01T05:18:07.165Z,47.60
2018-04-01T05:20:36.106Z,45.80
2018-04-01T05:23:04.918Z,44.00
2018-04-01T05:25:33.546Z,47.20
2018-04-01T05:28:02.198Z,45.40
2018-04-01T05:30:30.665Z,40.60
2018-04-01T05:32:59.568Z,41.60
2018-04-01T05:35:28.397Z,43.00
2018-04-01T05:37:57.220Z,40.60
2018-04-01T05:40:27.025Z,39.40
2018-04-01T05:42:56.140Z,41.80
2018-04-01T05:45:24.663Z,43.80
2018-04-01T05:47:53.231Z,42.20
2018-04-01T05:50:22.080Z,43.20
2018-04-01T05:52:50.173Z,40.20
2018-04-01T05:55:18.543Z,39.00
2018-04-01T05:57:47.152Z,41.80
2018-04-01T06:00:16.004Z,40.60
2018-04-01T06:02:44.872Z,38.80
2018-04-01T06:05:13.437Z,37.40
2018-04-01T06:07:41.967Z,37.60
2018-04-01T06:10:10.494Z,38.60
2018-04-01T06:12:39.335Z,36.60
2018-04-01T06:15:07.873Z,37.60
2018-04-01T06:17:36.565Z,36.80
2018-04-01T06:20:05.032Z,35.20
2018-04-01T06:22:33.510Z,40.20
2018-04-01T06:25:02.195Z,39.40
2018-04-01T06:27:30.632Z,38.80
2018-04-01T06:29:59.357Z,40.60
2018-04-01T06:32:28.075Z,39.20
2018-04-01T06:34:56.663Z,37.60
2018-04-01T06:37:24.946Z,37.80
2018-04-01T06:39:53.787Z,36.40
2018-04-01T06:42:22.197Z,35.20
2018-04-01T06:44:50.899Z,32.20
2018-04-01T06:47:19.538Z,31.20
2018-04-01T06:49:47.960Z,32.60
2018-04-01T06:52:16.342Z,33.40
2018-04-01T06:54:44.788Z,33.00
2018-04-01T06:57:13.130Z,32.00
2018-04-01T06:59:41.849Z,33.20
2018-04-01T07:02:10.618Z,32.60
2018-04-01T07:04:39.236Z,30.60
2018-04-01T07:07:08.046Z,32.40
2018-04-01T07:09:36.347Z,32.20
2018-04-01T07:12:05.109Z,33.00
2018-04-01T07:14:33.928Z,32.80
2018-04-01T07:17:04.315Z,33.20
2018-04-01T07:19:33.196Z,32.60
2018-04-01T07:22:01.703Z,32.80
2018-04-01T07:24:30.207Z,31.00
2018-04-01T07:26:59.185Z,31.20
2018-04-01T07:29:27.799Z,32.00
2018-04-01T07:31:56.214Z,31.60
2018-04-01T07:34:24.797Z,32.40
2018-04-01T07:36:53.470Z,31.40
2018-04-01T07:39:22.300Z,31.00
2018-04-01T07:41:51.237Z,33.20
2018-04-01T07:44:20.431Z,30.60
2018-04-01T07:46:48.849Z,32.20
2018-04-01T07:49:17.427Z,31.00
2018-04-01T07:51:47.316Z,29.60
2018-04-01T07:54:15.937Z,30.40
2018-04-01T07:56:44.350Z,31.20
2018-04-01T07:59:13.143Z,30.60
2018-04-01T08:01:42.113Z,30.40
2018-04-01T08:04:11.430Z,30.60
2018-04-01T08:06:40.377Z,31.00
2018-04-01T08:09:08.866Z,30.60
2018-04-01T08:11:38.164Z,30.00
2018-04-01T08:14:07.411Z,28.40
2018-04-01T08:16:36.156Z,29.00
2018-04-01T08:19:04.535Z,29.80
2018-04-01T08:21:33.025Z,30.20
2018-04-01T08:24:01.832Z,31.00
2018-04-01T08:26:29.973Z,30.60
2018-04-01T08:28:58.643Z,30.00
2018-04-01T08:31:27.023Z,30.20
2018-04-01T08:33:56.224Z,26.40
2018-04-01T08:36:25.052Z,29.00
2018-04-01T08:38:53.748Z,30.40
2018-04-01T08:41:23.223Z,29.00
2018-04-01T08:43:56.605Z,29.40
2018-04-01T08:46:25.392Z,29.80
2018-04-01T08:48:54.170Z,29.00
2018-04-01T08:51:22.859Z,29.00
2018-04-01T08:53:52.491Z,28.20
2018-04-01T08:56:23.142Z,29.20
2018-04-01T08:58:52.553Z,28.80
2018-04-01T09:01:21.926Z,28.80
2018-04-01T09:03:51.324Z,28.40
2018-04-01T09:06:21.425Z,29.20
2018-04-01T09:08:54.097Z,29.60
2018-04-01T09:11:27.604Z,28.40
2018-04-01T09:13:57.053Z,28.00
2018-04-01T09:16:27.544Z,28.20
2018-04-01T09:21:35.620Z,29.60
2018-04-01T09:24:04.065Z,28.20
2018-04-01T09:26:33.035Z,31.20
2018-04-01T09:29:02.127Z,29.20
2018-04-01T09:31:32.861Z,29.20
2018-04-01T09:34:01.941Z,29.20
2018-04-01T09:36:30.519Z,27.80
2018-04-01T09:38:59.004Z,27.20
2018-04-01T09:41:30.456Z,28.80
2018-04-01T09:43:59.996Z,28.20
2018-04-01T09:46:32.727Z,28.20
2018-04-01T09:49:01.971Z,28.20
2018-04-01T09:51:30.838Z,28.80
2018-04-01T09:53:59.733Z,29.20
2018-04-01T09:56:29.953Z,29.40
2018-04-01T09:58:58.622Z,28.40
2018-04-01T10:01:28.561Z,28.20
2018-04-01T10:03:58.509Z,28.20
2018-04-01T10:06:28.079Z,27.60
2018-04-01T10:08:57.566Z,28.20
2018-04-01T10:11:26.965Z,26.20
2018-04-01T10:13:57.407Z,27.20
2018-04-01T10:16:27.226Z,26.60
2018-04-01T10:18:57.111Z,27.60
2018-04-01T10:21:26.576Z,28.20
2018-04-01T10:23:56.132Z,28.20
2018-04-01T10:26:25.392Z,26.60
2018-04-01T10:28:54.826Z,28.20
2018-04-01T10:31:24.137Z,27.40
2018-04-01T10:33:53.489Z,26.40
2018-04-01T10:36:22.965Z,27.20
2018-04-01T10:38:52.101Z,27.40
2018-04-01T10:41:21.708Z,27.60
2018-04-01T10:43:52.564Z,26.60
2018-04-01T10:46:21.873Z,26.20
2018-04-01T10:48:51.060Z,26.80
2018-04-01T10:51:20.269Z,26.60
2018-04-01T10:53:58.281Z,25.00
2018-04-01T10:56:26.701Z,28.00
2018-04-01T10:58:55.389Z,28.80
2018-04-01T11:01:24.119Z,28.20
2018-04-01T11:03:52.472Z,28.00
2018-04-01T11:06:21.112Z,27.20
2018-04-01T11:08:49.830Z,26.60
2018-04-01T11:11:19.730Z,27.20
2018-04-01T11:13:49.352Z,28.00
2018-04-01T11:16:18.172Z,27.60
2018-04-01T11:18:47.579Z,27.20
2018-04-01T11:21:16.998Z,25.40
2018-04-01T11:23:45.878Z,27.40
2018-04-01T11:26:14.475Z,27.20
2018-04-01T11:28:42.690Z,26.60
2018-04-01T11:34:01.603Z,26.60
2018-04-01T11:36:30.008Z,26.40
2018-04-01T11:38:58.600Z,27.60
2018-04-01T11:41:27.706Z,27.20
2018-04-01T11:43:56.577Z,26.60
2018-04-01T11:46:26.098Z,27.60
2018-04-01T11:48:54.816Z,25.80
2018-04-01T11:51:23.281Z,26.00
2018-04-01T11:53:51.996Z,24.80
2018-04-01T11:56:20.416Z,26.60
2018-04-01T11:58:48.719Z,26.80
2018-04-01T12:01:17.463Z,26.80
2018-04-01T12:03:46.172Z,25.60
2018-04-01T12:06:15.005Z,27.20
2018-04-01T12:08:45.243Z,25.60
2018-04-01T12:11:14.256Z,27.20
2018-04-01T12:13:42.828Z,26.20
2018-04-01T12:16:11.624Z,27.80
2018-04-01T12:18:40.711Z,29.00
2018-04-01T12:21:10.105Z,28.20
2018-04-01T12:23:38.590Z,28.00
2018-04-01T12:26:06.873Z,26.80
2018-04-01T12:28:35.571Z,29.20
2018-04-01T12:31:03.833Z,28.20
2018-04-01T12:33:32.228Z,29.00
2018-04-01T12:36:00.662Z,28.20
2018-04-01T12:38:29.175Z,27.80
2018-04-01T12:40:58.025Z,29.00
2018-04-01T12:43:26.451Z,28.20
2018-04-01T12:45:54.743Z,28.60
2018-04-01T12:48:23.495Z,29.00
2018-04-01T12:50:52.067Z,28.60
2018-04-01T12:53:20.254Z,30.80
2018-04-01T12:55:49.178Z,30.00
2018-04-01T12:58:17.863Z,29.80
2018-04-01T13:00:46.259Z,29.00
2018-04-01T13:03:15.015Z,28.20
2018-04-01T13:05:43.632Z,27.20
2018-04-01T13:08:12.304Z,27.20
2018-04-01T13:10:40.860Z,28.20
2018-04-01T13:13:10.381Z,28.00
2018-04-01T13:15:41.204Z,28.60
2018-04-01T13:18:09.956Z,30.00
2018-04-01T13:20:38.410Z,29.80
2018-04-01T13:23:06.749Z,30.00
2018-04-01T13:25:35.185Z,31.00
2018-04-01T13:28:03.805Z,31.00
2018-04-01T13:30:32.319Z,28.80
2018-04-01T13:33:00.814Z,30.60
2018-04-01T13:35:29.575Z,29.80
2018-04-01T13:37:58.048Z,33.00
2018-04-01T13:40:28.278Z,32.80
2018-04-01T13:42:56.635Z,34.00
2018-04-01T13:45:26.902Z,32.20
2018-04-01T13:47:58.593Z,33.60
2018-04-01T13:50:27.957Z,34.00
2018-04-01T13:52:56.648Z,33.00
2018-04-01T13:55:25.713Z,33.40
2018-04-01T13:57:55.488Z,34.20
2018-04-01T14:00:26.212Z,34.80
2018-04-01T14:02:58.062Z,34.60
2018-04-01T14:05:26.678Z,34.20
2018-04-01T14:07:55.407Z,33.80
2018-04-01T14:10:23.882Z,34.80
2018-04-01T14:12:54.893Z,34.40
2018-04-01T14:15:25.152Z,35.20
2018-04-01T14:17:56.909Z,34.80
2018-04-01T14:20:25.804Z,35.20
2018-04-01T14:22:54.730Z,36.20
2018-04-01T14:25:23.375Z,36.00
2018-04-01T14:27:51.968Z,36.00
2018-04-01T14:30:20.187Z,35.40
2018-04-01T14:32:48.656Z,35.40
2018-04-01T14:35:17.492Z,36.00
2018-04-01T14:37:45.511Z,36.60
2018-04-01T14:40:13.793Z,37.80
2018-04-01T14:42:42.307Z,36.00
2018-04-01T14:45:10.589Z,36.40
2018-04-01T14:47:39.282Z,36.00
2018-04-01T14:50:07.816Z,36.40
2018-04-01T14:52:36.075Z,36.40
2018-04-01T14:55:04.241Z,37.20
2018-04-01T14:57:32.803Z,37.40
2018-04-01T15:00:01.394Z,37.00
2018-04-01T15:02:29.574Z,39.80
2018-04-01T15:04:58.107Z,39.80
2018-04-01T15:07:26.735Z,38.60
2018-04-01T15:09:55.461Z,40.00
2018-04-01T15:12:24.064Z,38.20
2018-04-01T15:14:52.358Z,36.60
2018-04-01T15:17:21.055Z,39.80
2018-04-01T15:19:49.520Z,38.00
2018-04-01T15:22:18.097Z,40.20
2018-04-01T15:24:47.155Z,37.80
2018-04-01T15:27:22.243Z,35.20
2018-04-01T15:29:51.729Z,36.60
2018-04-01T15:32:20.458Z,39.00
2018-04-01T15:37:43.077Z,39.60
2018-04-01T15:40:12.232Z,38.20
2018-04-01T15:42:41.260Z,40.20
2018-04-01T15:45:10.071Z,39.00
2018-04-01T15:47:39.196Z,41.20
2018-04-01T15:50:08.040Z,39.20
2018-04-01T15:52:36.740Z,43.00
2018-04-01T15:55:06.175Z,45.80
2018-04-01T15:57:35.291Z,43.60
2018-04-01T16:00:04.175Z,44.00
2018-04-01T16:02:35.843Z,47.20
2018-04-01T16:05:06.212Z,46.75
2018-04-01T16:07:36.476Z,42.40
2018-04-01T16:10:05.758Z,45.40
2018-04-01T16:12:36.777Z,41.20
2018-04-01T16:15:07.495Z,43.20
2018-04-01T16:17:38.355Z,44.80
2018-04-01T16:20:08.457Z,44.60
2018-04-01T16:22:37.220Z,43.00
2018-04-01T16:25:06.294Z,42.80
2018-04-01T16:27:35.617Z,42.20
2018-04-01T16:30:05.118Z,43.40
2018-04-01T16:32:33.920Z,43.20
2018-04-01T16:35:03.133Z,44.60
2018-04-01T16:37:32.130Z,43.60
2018-04-01T16:40:01.310Z,42.40
2018-04-01T16:42:30.750Z,43.00
2018-04-01T16:45:00.842Z,41.40
2018-04-01T16:47:30.173Z,41.20
2018-04-01T16:50:02.614Z,40.80
2018-04-01T16:52:32.913Z,39.40
2018-04-01T16:55:04.097Z,42.20
2018-04-01T16:57:33.695Z,41.80
2018-04-01T17:00:03.208Z,43.00
2018-04-01T17:02:32.314Z,38.80
2018-04-01T17:05:01.422Z,44.80
2018-04-01T17:07:30.573Z,43.20
2018-04-01T17:09:59.032Z,41.40
2018-04-01T17:12:28.782Z,41.80
2018-04-01T17:14:58.984Z,41.40
2018-04-01T17:17:28.187Z,43.00
2018-04-01T17:19:57.067Z,41.80
2018-04-01T17:22:25.762Z,43.20
2018-04-01T17:24:55.842Z,41.80
2018-04-01T17:27:27.276Z,42.60
2018-04-01T17:29:56.928Z,43.40
2018-04-01T17:32:25.247Z,43.80
2018-04-01T17:34:54.264Z,42.20
2018-04-01T17:37:22.884Z,44.40
2018-04-01T17:39:52.041Z,44.40
2018-04-01T17:42:20.689Z,42.00
2018-04-01T17:44:49.552Z,45.00
2018-04-01T17:47:18.431Z,43.60
2018-04-01T17:49:47.338Z,46.40
2018-04-01T17:52:16.540Z,49.40
2018-04-01T17:54:48.777Z,45.00
2018-04-01T17:57:17.896Z,47.20
2018-04-01T17:59:46.903Z,45.00
2018-04-01T18:02:21.336Z,44.60
2018-04-01T18:04:49.765Z,43.80
2018-04-01T18:07:18.575Z,47.80
2018-04-01T18:09:47.010Z,44.20
2018-04-01T18:12:16.828Z,45.60
2018-04-01T18:14:45.449Z,48.80
2018-04-01T18:17:13.993Z,45.60
2018-04-01T18:19:44.708Z,44.00
2018-04-01T18:22:13.971Z,51.80
2018-04-01T18:24:42.634Z,47.60
2018-04-01T18:27:11.758Z,48.60
2018-04-01T18:29:40.530Z,45.20
2018-04-01T18:32:09.511Z,46.40
2018-04-01T18:34:38.769Z,45.20
2018-04-01T18:37:07.288Z,49.60
2018-04-01T18:39:36.512Z,46.20
2018-04-01T18:42:05.245Z,43.20
2018-04-01T18:44:33.640Z,47.20
2018-04-01T18:47:02.744Z,46.80
2018-04-01T18:49:31.636Z,43.60
2018-04-01T18:52:02.581Z,47.80
2018-04-01T18:54:32.010Z,43.20
2018-04-01T18:57:01.763Z,50.60
2018-04-01T18:59:30.471Z,45.40
2018-04-01T19:01:59.103Z,48.20
2018-04-01T19:04:27.514Z,50.00
2018-04-01T19:06:55.653Z,48.80
2018-04-01T19:09:24.360Z,54.40
2018-04-01T19:11:52.849Z,51.00
2018-04-01T19:14:21.337Z,47.20
2018-04-01T19:17:00.682Z,50.00
2018-04-01T19:19:30.248Z,52.80
2018-04-01T19:21:59.787Z,49.60
2018-04-01T19:24:29.034Z,49.40
2018-04-01T19:26:58.412Z,48.20
2018-04-01T19:29:27.622Z,51.00
2018-04-01T19:31:57.148Z,47.60
2018-04-01T19:34:26.867Z,50.60
2018-04-01T19:36:56.704Z,48.20
2018-04-01T19:39:26.309Z,52.20
2018-04-01T19:41:55.622Z,52.80
2018-04-01T19:44:24.939Z,50.60
2018-04-01T19:47:10.064Z,53.40
2018-04-01T19:49:39.421Z,51.00
2018-04-01T19:52:08.522Z,52.80
2018-04-01T19:54:37.792Z,52.80
2018-04-01T19:57:07.241Z,52.20
2018-04-01T19:59:36.671Z,48.80
2018-04-01T20:02:06.201Z,52.00
2018-04-01T20:04:35.427Z,51.80
2018-04-01T20:07:04.842Z,51.20
2018-04-01T20:09:34.107Z,51.60
2018-04-01T20:12:03.351Z,52.00
2018-04-01T20:14:32.621Z,46.20
2018-04-01T20:17:01.909Z,48.40
2018-04-01T20:19:31.294Z,50.60
2018-04-01T20:22:00.360Z,46.80
2018-04-01T20:24:29.447Z,45.80
2018-04-01T20:26:58.387Z,47.60
2018-04-01T20:29:27.724Z,48.40
2018-04-01T20:31:56.815Z,48.20
2018-04-01T20:34:26.079Z,46.80
2018-04-01T20:36:55.013Z,44.80
2018-04-01T20:39:23.975Z,46.00
2018-04-01T20:41:53.160Z,47.00
2018-04-01T20:44:22.268Z,47.60
2018-04-01T20:46:51.427Z,46.20
2018-04-01T20:49:20.493Z,46.20
2018-04-01T20:51:49.661Z,39.60
2018-04-01T20:54:18.638Z,47.60
2018-04-01T20:56:48.032Z,49.40
2018-04-01T20:59:17.532Z,48.80
2018-04-01T21:01:46.979Z,46.60
2018-04-01T21:04:16.167Z,45.00
2018-04-01T21:06:45.478Z,45.40
2018-04-01T21:09:15.126Z,48.00
2018-04-01T21:11:44.362Z,44.20
2018-04-01T21:14:13.647Z,48.80
2018-04-01T21:16:42.996Z,48.00
2018-04-01T21:19:12.366Z,50.80
2018-04-01T21:21:41.838Z,47.80
2018-04-01T21:24:11.100Z,49.40
2018-04-01T21:26:40.021Z,51.20
2018-04-01T21:29:09.051Z,50.80
2018-04-01T21:31:38.372Z,52.20
2018-04-01T21:34:07.960Z,48.00
2018-04-01T21:36:37.325Z,49.40
2018-04-01T21:39:06.677Z,50.60
2018-04-01T21:41:35.621Z,51.20
2018-04-01T21:44:05.061Z,51.20
2018-04-01T21:46:34.403Z,49.40
2018-04-01T21:49:03.531Z,49.60
2018-04-01T21:51:32.665Z,51.80
2018-04-01T21:54:01.887Z,51.80
2018-04-01T21:56:30.912Z,48.60
2018-04-01T21:59:00.183Z,50.40
2018-04-01T22:01:29.347Z,49.00
2018-04-01T22:03:58.542Z,49.40
2018-04-01T22:06:27.922Z,49.20
2018-04-01T22:08:57.107Z,49.40
2018-04-01T22:11:26.345Z,53.40
2018-04-01T22:13:55.318Z,49.60
2018-04-01T22:16:24.679Z,49.40
2018-04-01T22:18:54.043Z,49.60
2018-04-01T22:21:23.208Z,49.40
2018-04-01T22:23:52.727Z,50.60
2018-04-01T22:26:22.121Z,49.40
2018-04-01T22:28:51.274Z,50.00
2018-04-01T22:31:20.535Z,51.60
2018-04-01T22:33:49.688Z,50.00
2018-04-01T22:36:18.824Z,49.60
2018-04-01T22:38:47.949Z,52.80
2018-04-01T22:41:17.375Z,53.60
2018-04-01T22:43:47.093Z,54.00
2018-04-01T22:46:16.261Z,47.00
2018-04-01T22:48:45.224Z,52.20
2018-04-01T22:51:14.342Z,50.60
2018-04-01T22:53:43.905Z,48.20
2018-04-01T22:56:13.455Z,48.80
2018-04-01T22:58:42.791Z,52.20
2018-04-01T23:01:12.050Z,51.00
2018-04-01T23:03:41.459Z,44.80
2018-04-01T23:06:10.611Z,50.40
2018-04-01T23:08:40.045Z,48.60
2018-04-01T23:11:09.019Z,48.20
2018-04-01T23:13:38.361Z,47.40
2018-04-01T23:16:07.644Z,39.20
2018-04-01T23:18:36.990Z,45.80
2018-04-01T23:21:06.172Z,49.00
2018-04-01T23:23:35.176Z,49.80
2018-04-01T23:26:04.174Z,48.00
2018-04-01T23:28:33.522Z,47.60
2018-04-01T23:31:02.905Z,46.20
2018-04-01T23:33:32.249Z,46.20
2018-04-01T23:36:01.840Z,46.80
2018-04-01T23:38:30.957Z,47.20
2018-04-01T23:40:59.870Z,46.20
2018-04-01T23:43:29.177Z,44.00
2018-04-01T23:45:58.551Z,43.80
2018-04-01T23:48:28.555Z,47.00
2018-04-01T23:50:57.579Z,49.40
2018-04-01T23:53:26.629Z,47.20
2018-04-01T23:55:55.815Z,50.00
2018-04-01T23:58:25.094Z,48.40
